sensor_id;sensor_type;location;lat;lon;timestamp;pressure;altitude;pressure_sealevel;temperature;humidity
73633;BME280;61927;50.080;14.418;2023-06-19T00:01:48;99278.53;;;18.57;62.45
73633;BME280;61927;50.080;14.418;2023-06-19T00:04:13;99279.28;;;18.50;62.32
73633;BME280;61927;50.080;14.418;2023-06-19T00:06:39;99284.56;;;18.42;62.16
73633;BME280;61927;50.080;14.418;2023-06-19T00:09:06;99272.72;;;18.34;62.95
73633;BME280;61927;50.080;14.418;2023-06-19T00:11:32;99276.56;;;18.32;63.15
73633;BME280;61927;50.080;14.418;2023-06-19T00:13:57;99266.94;;;18.29;63.09
73633;BME280;61927;50.080;14.418;2023-06-19T00:16:23;99271.06;;;18.24;63.00
73633;BME280;61927;50.080;14.418;2023-06-19T00:18:51;99270.38;;;18.22;63.32
73633;BME280;61927;50.080;14.418;2023-06-19T00:21:25;99279.28;;;18.22;63.63
73633;BME280;61927;50.080;14.418;2023-06-19T00:23:52;99270.91;;;18.25;63.78
73633;BME280;61927;50.080;14.418;2023-06-19T00:26:18;99264.31;;;18.20;64.05
73633;BME280;61927;50.080;14.418;2023-06-19T00:28:44;99270.97;;;18.16;63.99
73633;BME280;61927;50.080;14.418;2023-06-19T00:31:13;99280.44;;;18.10;63.99
73633;BME280;61927;50.080;14.418;2023-06-19T00:33:40;99273.25;;;18.11;64.17
73633;BME280;61927;50.080;14.418;2023-06-19T00:36:14;99272.84;;;18.05;63.98
73633;BME280;61927;50.080;14.418;2023-06-19T00:38:41;99266.91;;;18.02;63.81
73633;BME280;61927;50.080;14.418;2023-06-19T00:41:07;99268.59;;;18.03;64.02
73633;BME280;61927;50.080;14.418;2023-06-19T00:43:34;99268.75;;;18.01;63.95
73633;BME280;61927;50.080;14.418;2023-06-19T00:46:00;99262.38;;;18.02;64.51
73633;BME280;61927;50.080;14.418;2023-06-19T00:48:28;99256.31;;;18.00;64.32
73633;BME280;61927;50.080;14.418;2023-06-19T00:50:55;99261.97;;;17.97;64.89
73633;BME280;61927;50.080;14.418;2023-06-19T00:53:22;99256.34;;;17.91;65.45
73633;BME280;61927;50.080;14.418;2023-06-19T00:55:48;99252.41;;;17.85;65.49
73633;BME280;61927;50.080;14.418;2023-06-19T00:58:15;99249.72;;;17.85;65.26
73633;BME280;61927;50.080;14.418;2023-06-19T01:00:41;99252.56;;;17.84;65.76
73633;BME280;61927;50.080;14.418;2023-06-19T01:03:07;99247.19;;;17.84;65.24
73633;BME280;61927;50.080;14.418;2023-06-19T01:05:32;99248.19;;;17.83;65.86
73633;BME280;61927;50.080;14.418;2023-06-19T01:08:09;99236.19;;;17.77;66.18
73633;BME280;61927;50.080;14.418;2023-06-19T01:10:47;99243.84;;;17.72;65.80
73633;BME280;61927;50.080;14.418;2023-06-19T01:13:39;99239.31;;;17.63;65.35
73633;BME280;61927;50.080;14.418;2023-06-19T01:16:07;99232.53;;;17.59;66.18
73633;BME280;61927;50.080;14.418;2023-06-19T01:18:34;99232.53;;;17.59;66.07
73633;BME280;61927;50.080;14.418;2023-06-19T01:21:15;99241.00;;;17.64;66.15
73633;BME280;61927;50.080;14.418;2023-06-19T01:23:42;99238.19;;;17.56;66.13
73633;BME280;61927;50.080;14.418;2023-06-19T01:26:08;99235.53;;;17.46;66.85
73633;BME280;61927;50.080;14.418;2023-06-19T01:28:35;99236.38;;;17.37;67.03
73633;BME280;61927;50.080;14.418;2023-06-19T01:31:06;99237.78;;;17.31;67.45
73633;BME280;61927;50.080;14.418;2023-06-19T01:33:36;99237.09;;;17.29;67.72
73633;BME280;61927;50.080;14.418;2023-06-19T01:36:04;99242.47;;;17.29;67.63
73633;BME280;61927;50.080;14.418;2023-06-19T01:38:31;99232.56;;;17.30;67.45
73633;BME280;61927;50.080;14.418;2023-06-19T01:40:57;99238.50;;;17.33;67.24
73633;BME280;61927;50.080;14.418;2023-06-19T01:43:26;99235.81;;;17.33;67.47
73633;BME280;61927;50.080;14.418;2023-06-19T01:45:52;99232.44;;;17.31;67.40
73633;BME280;61927;50.080;14.418;2023-06-19T01:48:18;99235.41;;;17.28;67.14
73633;BME280;61927;50.080;14.418;2023-06-19T01:50:48;99238.94;;;17.19;67.41
73633;BME280;61927;50.080;14.418;2023-06-19T01:53:14;99237.66;;;17.14;67.73
73633;BME280;61927;50.080;14.418;2023-06-19T01:55:40;99238.09;;;17.09;68.33
73633;BME280;61927;50.080;14.418;2023-06-19T01:58:06;99241.63;;;17.09;68.50
73633;BME280;61927;50.080;14.418;2023-06-19T02:00:32;99237.38;;;17.07;68.20
73633;BME280;61927;50.080;14.418;2023-06-19T02:03:01;99233.28;;;17.03;68.23
73633;BME280;61927;50.080;14.418;2023-06-19T02:05:27;99237.09;;;17.00;68.57
73633;BME280;61927;50.080;14.418;2023-06-19T02:07:52;99241.63;;;17.00;68.67
73633;BME280;61927;50.080;14.418;2023-06-19T02:10:18;99242.31;;;17.02;68.52
73633;BME280;61927;50.080;14.418;2023-06-19T02:12:44;99237.09;;;17.00;68.34
73633;BME280;61927;50.080;14.418;2023-06-19T02:15:09;99230.31;;;16.96;68.46
73633;BME280;61927;50.080;14.418;2023-06-19T02:17:35;99239.50;;;16.94;68.63
73633;BME280;61927;50.080;14.418;2023-06-19T02:20:01;99233.28;;;16.93;68.51
73633;BME280;61927;50.080;14.418;2023-06-19T02:22:27;99241.06;;;16.96;68.66
73633;BME280;61927;50.080;14.418;2023-06-19T02:24:52;99237.81;;;16.93;68.72
73633;BME280;61927;50.080;14.418;2023-06-19T02:27:18;99236.53;;;16.87;69.00
73633;BME280;61927;50.080;14.418;2023-06-19T02:29:44;99246.81;;;16.82;68.78
73633;BME280;61927;50.080;14.418;2023-06-19T02:32:09;99242.44;;;16.81;69.08
73633;BME280;61927;50.080;14.418;2023-06-19T02:34:36;99251.06;;;16.85;69.32
73633;BME280;61927;50.080;14.418;2023-06-19T02:37:01;99258.81;;;16.88;69.07
73633;BME280;61927;50.080;14.418;2023-06-19T02:39:27;99255.16;;;16.89;69.28
73633;BME280;61927;50.080;14.418;2023-06-19T02:41:52;99256.28;;;16.86;69.22
73633;BME280;61927;50.080;14.418;2023-06-19T02:44:18;99251.91;;;16.85;69.13
73633;BME280;61927;50.080;14.418;2023-06-19T02:46:44;99257.69;;;16.81;69.03
73633;BME280;61927;50.080;14.418;2023-06-19T02:49:09;99251.88;;;16.75;69.29
73633;BME280;61927;50.080;14.418;2023-06-19T02:51:35;99245.41;;;16.78;69.37
73633;BME280;61927;50.080;14.418;2023-06-19T02:54:00;99246.38;;;16.77;69.61
73633;BME280;61927;50.080;14.418;2023-06-19T02:56:26;99249.34;;;16.74;69.76
73633;BME280;61927;50.080;14.418;2023-06-19T02:58:54;99250.75;;;16.78;70.01
73633;BME280;61927;50.080;14.418;2023-06-19T03:01:19;99244.56;;;16.77;69.94
73633;BME280;61927;50.080;14.418;2023-06-19T03:03:45;99237.66;;;16.75;70.14
73633;BME280;61927;50.080;14.418;2023-06-19T03:06:12;99244.25;;;16.71;70.19
73633;BME280;61927;50.080;14.418;2023-06-19T03:08:39;99241.72;;;16.69;70.52
73633;BME280;61927;50.080;14.418;2023-06-19T03:11:05;99243.69;;;16.67;70.44
73633;BME280;61927;50.080;14.418;2023-06-19T03:13:50;99244.94;;;16.63;70.36
73633;BME280;61927;50.080;14.418;2023-06-19T03:16:16;99240.56;;;16.62;70.57
73633;BME280;61927;50.080;14.418;2023-06-19T03:18:45;99232.53;;;16.62;70.12
73633;BME280;61927;50.080;14.418;2023-06-19T03:21:12;99229.00;;;16.62;70.18
73633;BME280;61927;50.080;14.418;2023-06-19T03:23:37;99232.00;;;16.68;69.99
73633;BME280;61927;50.080;14.418;2023-06-19T03:26:03;99225.78;;;16.68;69.67
73633;BME280;61927;50.080;14.418;2023-06-19T03:28:28;99237.50;;;16.67;69.64
73633;BME280;61927;50.080;14.418;2023-06-19T03:30:54;99230.53;;;16.64;69.81
73633;BME280;61927;50.080;14.418;2023-06-19T03:33:20;99229.13;;;16.60;69.73
73633;BME280;61927;50.080;14.418;2023-06-19T03:35:46;99231.09;;;16.58;69.67
73633;BME280;61927;50.080;14.418;2023-06-19T03:38:12;99236.19;;;16.61;69.30
73633;BME280;61927;50.080;14.418;2023-06-19T03:40:38;99243.69;;;16.67;69.29
73633;BME280;61927;50.080;14.418;2023-06-19T03:43:03;99244.53;;;16.68;69.24
73633;BME280;61927;50.080;14.418;2023-06-19T03:45:29;99242.25;;;16.63;69.54
73633;BME280;61927;50.080;14.418;2023-06-19T03:47:57;99242.81;;;16.57;69.46
73633;BME280;61927;50.080;14.418;2023-06-19T03:50:23;99245.88;;;16.53;69.84
73633;BME280;61927;50.080;14.418;2023-06-19T03:52:48;99241.94;;;16.47;69.69
73633;BME280;61927;50.080;14.418;2023-06-19T03:55:14;99241.94;;;16.47;69.71
73633;BME280;61927;50.080;14.418;2023-06-19T03:57:39;99239.56;;;16.54;69.58
73633;BME280;61927;50.080;14.418;2023-06-19T04:00:06;99248.03;;;16.59;69.05
73633;BME280;61927;50.080;14.418;2023-06-19T04:02:36;99238.44;;;16.56;69.33
73633;BME280;61927;50.080;14.418;2023-06-19T04:05:02;99253.50;;;16.57;69.22
73633;BME280;61927;50.080;14.418;2023-06-19T04:07:28;99246.59;;;16.55;68.67
73633;BME280;61927;50.080;14.418;2023-06-19T04:09:54;99244.47;;;16.48;69.20
73633;BME280;61927;50.080;14.418;2023-06-19T04:12:19;99237.16;;;16.51;68.43
73633;BME280;61927;50.080;14.418;2023-06-19T04:14:45;99242.19;;;16.44;68.62
73633;BME280;61927;50.080;14.418;2023-06-19T04:17:10;99242.47;;;16.41;68.63
73633;BME280;61927;50.080;14.418;2023-06-19T04:19:36;99247.13;;;16.39;68.90
73633;BME280;61927;50.080;14.418;2023-06-19T04:22:02;99248.25;;;16.36;69.18
73633;BME280;61927;50.080;14.418;2023-06-19T04:24:27;99247.53;;;16.34;69.04
73633;BME280;61927;50.080;14.418;2023-06-19T04:26:53;99251.19;;;16.33;68.79
73633;BME280;61927;50.080;14.418;2023-06-19T04:29:19;99250.91;;;16.36;68.89
73633;BME280;61927;50.080;14.418;2023-06-19T04:31:44;99259.41;;;16.41;68.68
73633;BME280;61927;50.080;14.418;2023-06-19T04:34:13;99251.81;;;16.56;68.55
73633;BME280;61927;50.080;14.418;2023-06-19T04:36:40;99250.06;;;16.76;67.39
73633;BME280;61927;50.080;14.418;2023-06-19T04:39:06;99253.31;;;16.89;67.15
73633;BME280;61927;50.080;14.418;2023-06-19T04:41:33;99252.91;;;17.03;66.80
73633;BME280;61927;50.080;14.418;2023-06-19T04:43:59;99261.22;;;17.20;66.32
73633;BME280;61927;50.080;14.418;2023-06-19T04:46:25;99258.97;;;17.44;65.24
73633;BME280;61927;50.080;14.418;2023-06-19T04:48:51;99267.00;;;17.54;64.44
73633;BME280;61927;50.080;14.418;2023-06-19T04:51:17;99261.75;;;17.62;64.49
73633;BME280;61927;50.080;14.418;2023-06-19T04:53:47;99262.75;;;17.70;64.06
73633;BME280;61927;50.080;14.418;2023-06-19T04:56:14;99272.22;;;17.74;63.85
73633;BME280;61927;50.080;14.418;2023-06-19T04:58:40;99278.00;;;17.80;63.86
73633;BME280;61927;50.080;14.418;2023-06-19T05:01:14;99278.56;;;17.83;63.32
73633;BME280;61927;50.080;14.418;2023-06-19T05:03:41;99278.81;;;17.90;63.34
73633;BME280;61927;50.080;14.418;2023-06-19T05:06:07;99282.06;;;17.93;62.67
73633;BME280;61927;50.080;14.418;2023-06-19T05:08:32;99278.81;;;17.90;62.76
73633;BME280;61927;50.080;14.418;2023-06-19T05:10:58;99281.78;;;17.96;62.78
73633;BME280;61927;50.080;14.418;2023-06-19T05:13:24;99288.25;;;18.03;62.53
73633;BME280;61927;50.080;14.418;2023-06-19T05:15:50;99282.28;;;18.10;62.38
73633;BME280;61927;50.080;14.418;2023-06-19T05:18:18;99281.84;;;18.14;62.14
73633;BME280;61927;50.080;14.418;2023-06-19T05:20:44;99270.25;;;18.14;62.28
73633;BME280;61927;50.080;14.418;2023-06-19T05:23:10;99277.31;;;18.15;62.50
73633;BME280;61927;50.080;14.418;2023-06-19T05:25:36;99272.50;;;18.18;62.42
73633;BME280;61927;50.080;14.418;2023-06-19T05:28:02;99288.31;;;18.21;62.34
73633;BME280;61927;50.080;14.418;2023-06-19T05:30:27;99286.34;;;18.23;62.24
73633;BME280;61927;50.080;14.418;2023-06-19T05:32:53;99299.31;;;18.28;62.08
73633;BME280;61927;50.080;14.418;2023-06-19T05:35:19;99297.34;;;18.30;62.53
73633;BME280;61927;50.080;14.418;2023-06-19T05:37:44;99302.41;;;18.33;63.04
73633;BME280;61927;50.080;14.418;2023-06-19T05:40:10;99297.59;;;18.36;62.90
73633;BME280;61927;50.080;14.418;2023-06-19T05:42:36;99294.75;;;18.38;62.03
73633;BME280;61927;50.080;14.418;2023-06-19T05:45:06;99301.69;;;18.40;61.99
73633;BME280;61927;50.080;14.418;2023-06-19T05:47:32;99305.88;;;18.53;62.02
73633;BME280;61927;50.080;14.418;2023-06-19T05:49:57;99305.69;;;18.64;61.54
73633;BME280;61927;50.080;14.418;2023-06-19T05:52:23;99308.47;;;18.72;60.90
73633;BME280;61927;50.080;14.418;2023-06-19T05:54:49;99316.94;;;18.77;60.77
73633;BME280;61927;50.080;14.418;2023-06-19T05:57:15;99317.78;;;18.78;61.21
73633;BME280;61927;50.080;14.418;2023-06-19T05:59:42;99325.31;;;18.74;61.39
73633;BME280;61927;50.080;14.418;2023-06-19T06:02:07;99314.84;;;18.71;61.22
73633;BME280;61927;50.080;14.418;2023-06-19T06:04:33;99317.09;;;18.76;61.47
73633;BME280;61927;50.080;14.418;2023-06-19T06:07:00;99317.19;;;18.84;60.44
73633;BME280;61927;50.080;14.418;2023-06-19T06:09:25;99319.66;;;18.95;59.83
73633;BME280;61927;50.080;14.418;2023-06-19T06:11:52;99330.81;;;19.00;60.17
73633;BME280;61927;50.080;14.418;2023-06-19T06:14:18;99336.09;;;18.92;60.08
73633;BME280;61927;50.080;14.418;2023-06-19T06:16:44;99334.25;;;18.92;59.43
73633;BME280;61927;50.080;14.418;2023-06-19T06:19:09;99337.34;;;18.97;58.46
73633;BME280;61927;50.080;14.418;2023-06-19T06:21:35;99341.66;;;19.08;58.26
73633;BME280;61927;50.080;14.418;2023-06-19T06:24:01;99340.38;;;19.12;57.98
73633;BME280;61927;50.080;14.418;2023-06-19T06:26:26;99347.59;;;19.12;58.19
73633;BME280;61927;50.080;14.418;2023-06-19T06:28:53;99350.81;;;19.15;57.62
73633;BME280;61927;50.080;14.418;2023-06-19T06:31:19;99342.84;;;19.23;57.56
73633;BME280;61927;50.080;14.418;2023-06-19T06:33:44;99341.63;;;19.35;57.03
73633;BME280;61927;50.080;14.418;2023-06-19T06:36:10;99351.31;;;19.46;56.75
73633;BME280;61927;50.080;14.418;2023-06-19T06:38:36;99354.25;;;19.53;55.92
73633;BME280;61927;50.080;14.418;2023-06-19T06:41:02;99351.94;;;19.58;55.82
73633;BME280;61927;50.080;14.418;2023-06-19T06:43:28;99353.34;;;19.62;55.55
73633;BME280;61927;50.080;14.418;2023-06-19T06:45:53;99350.47;;;19.63;55.51
73633;BME280;61927;50.080;14.418;2023-06-19T06:48:20;99355.03;;;19.63;56.14
73633;BME280;61927;50.080;14.418;2023-06-19T06:50:46;99365.78;;;19.63;55.71
73633;BME280;61927;50.080;14.418;2023-06-19T06:53:11;99351.47;;;19.62;55.95
73633;BME280;61927;50.080;14.418;2023-06-19T06:55:37;99351.78;;;19.59;56.50
73633;BME280;61927;50.080;14.418;2023-06-19T06:58:03;99356.88;;;19.62;56.40
73633;BME280;61927;50.080;14.418;2023-06-19T07:00:28;99369.47;;;19.62;56.65
73633;BME280;61927;50.080;14.418;2023-06-19T07:02:54;99381.78;;;19.64;56.38
73633;BME280;61927;50.080;14.418;2023-06-19T07:05:20;99366.41;;;19.75;56.53
73633;BME280;61927;50.080;14.418;2023-06-19T07:07:46;99388.16;;;19.81;55.98
73633;BME280;61927;50.080;14.418;2023-06-19T07:10:12;99391.25;;;19.86;56.22
73633;BME280;61927;50.080;14.418;2023-06-19T07:12:45;99395.53;;;19.97;55.80
73633;BME280;61927;50.080;14.418;2023-06-19T07:15:11;99381.59;;;20.02;55.00
73633;BME280;61927;50.080;14.418;2023-06-19T07:17:37;99374.53;;;20.00;54.79
73633;BME280;61927;50.080;14.418;2023-06-19T07:20:03;99380.69;;;19.93;55.40
73633;BME280;61927;50.080;14.418;2023-06-19T07:22:29;99371.22;;;19.89;55.76
73633;BME280;61927;50.080;14.418;2023-06-19T07:24:55;99377.09;;;19.84;56.27
73633;BME280;61927;50.080;14.418;2023-06-19T07:27:20;99378.63;;;19.87;56.17
73633;BME280;61927;50.080;14.418;2023-06-19T07:29:47;99390.84;;;19.99;55.99
73633;BME280;61927;50.080;14.418;2023-06-19T07:32:13;99377.59;;;20.06;56.41
73633;BME280;61927;50.080;14.418;2023-06-19T07:34:38;99375.66;;;20.16;55.77
73633;BME280;61927;50.080;14.418;2023-06-19T07:37:04;99374.38;;;20.28;55.61
73633;BME280;61927;50.080;14.418;2023-06-19T07:39:30;99381.50;;;20.37;55.31
73633;BME280;61927;50.080;14.418;2023-06-19T07:41:56;99371.19;;;20.50;54.88
73633;BME280;61927;50.080;14.418;2023-06-19T07:44:22;99376.56;;;20.50;55.04
73633;BME280;61927;50.080;14.418;2023-06-19T07:46:48;99379.78;;;20.54;55.32
73633;BME280;61927;50.080;14.418;2023-06-19T07:49:13;99380.47;;;20.56;55.35
73633;BME280;61927;50.080;14.418;2023-06-19T07:51:39;99374.25;;;20.55;56.81
73633;BME280;61927;50.080;14.418;2023-06-19T07:54:05;99376.41;;;20.52;56.67
73633;BME280;61927;50.080;14.418;2023-06-19T07:56:31;99375.88;;;20.48;57.41
73633;BME280;61927;50.080;14.418;2023-06-19T07:58:57;99372.72;;;20.53;57.94
73633;BME280;61927;50.080;14.418;2023-06-19T08:01:23;99371.03;;;20.52;58.93
73633;BME280;61927;50.080;14.418;2023-06-19T08:03:49;99375.09;;;20.56;58.73
73633;BME280;61927;50.080;14.418;2023-06-19T08:06:15;99373.22;;;20.56;58.28
73633;BME280;61927;50.080;14.418;2023-06-19T08:08:41;99370.38;;;20.58;59.04
73633;BME280;61927;50.080;14.418;2023-06-19T08:11:06;99367.69;;;20.58;58.35
73633;BME280;61927;50.080;14.418;2023-06-19T08:13:32;99370.84;;;20.53;58.11
73633;BME280;61927;50.080;14.418;2023-06-19T08:15:58;99365.25;;;20.47;58.75
73633;BME280;61927;50.080;14.418;2023-06-19T08:18:24;99355.28;;;20.39;59.40
73633;BME280;61927;50.080;14.418;2023-06-19T08:20:52;99355.88;;;20.33;59.61
73633;BME280;61927;50.080;14.418;2023-06-19T08:23:21;99352.13;;;20.26;60.30
73633;BME280;61927;50.080;14.418;2023-06-19T08:25:46;99358.06;;;20.29;60.22
73633;BME280;61927;50.080;14.418;2023-06-19T08:28:12;99346.59;;;20.27;61.50
73633;BME280;61927;50.080;14.418;2023-06-19T08:30:38;99353.56;;;20.38;61.62
73633;BME280;61927;50.080;14.418;2023-06-19T08:33:04;99352.63;;;20.47;61.74
73633;BME280;61927;50.080;14.418;2023-06-19T08:35:30;99341.03;;;20.55;62.43
73633;BME280;61927;50.080;14.418;2023-06-19T08:37:55;99342.25;;;20.60;62.17
73633;BME280;61927;50.080;14.418;2023-06-19T08:40:21;99346.28;;;20.56;63.10
73633;BME280;61927;50.080;14.418;2023-06-19T08:42:47;99346.28;;;20.56;63.43
73633;BME280;61927;50.080;14.418;2023-06-19T08:45:13;99347.59;;;20.52;63.19
73633;BME280;61927;50.080;14.418;2023-06-19T08:47:39;99336.09;;;20.42;62.94
73633;BME280;61927;50.080;14.418;2023-06-19T08:50:05;99341.81;;;20.39;62.78
73633;BME280;61927;50.080;14.418;2023-06-19T08:52:31;99338.72;;;20.34;62.44
73633;BME280;61927;50.080;14.418;2023-06-19T08:54:58;99344.75;;;20.28;62.26
73633;BME280;61927;50.080;14.418;2023-06-19T08:57:35;99344.59;;;20.29;62.37
73633;BME280;61927;50.080;14.418;2023-06-19T09:00:01;99352.03;;;20.36;61.64
73633;BME280;61927;50.080;14.418;2023-06-19T09:02:40;99353.28;;;20.41;60.85
73633;BME280;61927;50.080;14.418;2023-06-19T09:05:14;99354.63;;;20.45;61.55
73633;BME280;61927;50.080;14.418;2023-06-19T09:07:41;99357.53;;;20.52;61.63
73633;BME280;61927;50.080;14.418;2023-06-19T09:10:17;99353.03;;;20.60;61.43
73633;BME280;61927;50.080;14.418;2023-06-19T09:12:55;99351.72;;;20.64;61.45
73633;BME280;61927;50.080;14.418;2023-06-19T09:15:21;99359.09;;;20.62;61.27
73633;BME280;61927;50.080;14.418;2023-06-19T09:18:06;99351.34;;;20.59;61.20
73633;BME280;61927;50.080;14.418;2023-06-19T09:20:38;99354.41;;;20.64;60.51
73633;BME280;61927;50.080;14.418;2023-06-19T09:23:05;99345.19;;;20.75;60.29
73633;BME280;61927;50.080;14.418;2023-06-19T09:25:31;99350.16;;;20.96;60.32
73633;BME280;61927;50.080;14.418;2023-06-19T09:27:57;99356.59;;;21.11;59.14
73633;BME280;61927;50.080;14.418;2023-06-19T09:30:23;99350.94;;;21.22;58.66
73633;BME280;61927;50.080;14.418;2023-06-19T09:32:49;99348.91;;;21.24;58.66
73633;BME280;61927;50.080;14.418;2023-06-19T09:35:15;99341.81;;;21.23;58.69
73633;BME280;61927;50.080;14.418;2023-06-19T09:37:41;99351.78;;;21.23;59.10
73633;BME280;61927;50.080;14.418;2023-06-19T09:40:07;99339.81;;;21.25;58.62
73633;BME280;61927;50.080;14.418;2023-06-19T09:42:41;99338.13;;;21.33;59.33
73633;BME280;61927;50.080;14.418;2023-06-19T09:45:11;99341.34;;;21.44;58.83
73633;BME280;61927;50.080;14.418;2023-06-19T09:47:39;99329.38;;;21.55;58.44
73633;BME280;61927;50.080;14.418;2023-06-19T09:50:08;99330.06;;;21.65;57.79
73633;BME280;61927;50.080;14.418;2023-06-19T09:52:36;99328.72;;;21.69;56.62
73633;BME280;61927;50.080;14.418;2023-06-19T09:55:04;99340.69;;;21.75;54.41
73633;BME280;61927;50.080;14.418;2023-06-19T09:57:31;99337.66;;;21.78;54.29
73633;BME280;61927;50.080;14.418;2023-06-19T09:59:58;99336.47;;;21.88;53.06
73633;BME280;61927;50.080;14.418;2023-06-19T10:02:26;99331.09;;;22.05;53.03
73633;BME280;61927;50.080;14.418;2023-06-19T10:04:55;99325.00;;;22.19;52.23
73633;BME280;61927;50.080;14.418;2023-06-19T10:07:22;99327.66;;;22.35;52.14
73633;BME280;61927;50.080;14.418;2023-06-19T10:10:05;99336.75;;;22.50;52.28
73633;BME280;61927;50.080;14.418;2023-06-19T10:12:39;99324.72;;;22.53;52.04
73633;BME280;61927;50.080;14.418;2023-06-19T10:15:18;99325.53;;;22.62;51.98
73633;BME280;61927;50.080;14.418;2023-06-19T10:17:47;99327.19;;;22.71;50.68
73633;BME280;61927;50.080;14.418;2023-06-19T10:20:28;99335.31;;;22.71;50.56
73633;BME280;61927;50.080;14.418;2023-06-19T10:23:27;99338.16;;;22.77;50.58
73633;BME280;61927;50.080;14.418;2023-06-19T10:28:25;99332.19;;;22.98;49.86
73633;BME280;61927;50.080;14.418;2023-06-19T10:33:28;99325.25;;;23.27;48.00
73633;BME280;61927;50.080;14.418;2023-06-19T10:35:54;99321.72;;;23.49;48.64
73633;BME280;61927;50.080;14.418;2023-06-19T10:38:20;99315.91;;;23.60;47.84
73633;BME280;61927;50.080;14.418;2023-06-19T10:40:47;99318.00;;;23.73;47.75
73633;BME280;61927;50.080;14.418;2023-06-19T10:43:23;99308.03;;;23.88;47.42
73633;BME280;61927;50.080;14.418;2023-06-19T10:45:52;99306.66;;;24.07;47.20
73633;BME280;61927;50.080;14.418;2023-06-19T10:48:23;99304.94;;;24.29;46.79
73633;BME280;61927;50.080;14.418;2023-06-19T10:50:50;99299.06;;;24.40;46.66
73633;BME280;61927;50.080;14.418;2023-06-19T10:53:32;99289.34;;;24.45;47.32
73633;BME280;61927;50.080;14.418;2023-06-19T10:56:01;99288.28;;;24.61;46.44
73633;BME280;61927;50.080;14.418;2023-06-19T10:58:28;99285.22;;;24.64;46.36
73633;BME280;61927;50.080;14.418;2023-06-19T11:00:54;99285.03;;;24.66;46.82
73633;BME280;61927;50.080;14.418;2023-06-19T11:03:21;99281.09;;;24.68;47.59
73633;BME280;61927;50.080;14.418;2023-06-19T11:05:48;99285.56;;;24.76;46.13
73633;BME280;61927;50.080;14.418;2023-06-19T11:08:21;99285.84;;;24.81;46.09
73633;BME280;61927;50.080;14.418;2023-06-19T11:10:48;99277.00;;;24.94;45.99
73633;BME280;61927;50.080;14.418;2023-06-19T11:13:15;99284.84;;;25.18;45.49
73633;BME280;61927;50.080;14.418;2023-06-19T11:15:41;99280.63;;;25.37;45.07
73633;BME280;61927;50.080;14.418;2023-06-19T11:18:07;99283.16;;;25.60;44.52
73633;BME280;61927;50.080;14.418;2023-06-19T11:21:02;99278.47;;;25.96;43.44
73633;BME280;61927;50.080;14.418;2023-06-19T11:23:30;99270.06;;;26.19;42.83
73633;BME280;61927;50.080;14.418;2023-06-19T11:26:06;99266.75;;;26.24;42.61
73633;BME280;61927;50.080;14.418;2023-06-19T11:28:32;99264.22;;;26.22;41.36
73633;BME280;61927;50.080;14.418;2023-06-19T11:31:00;99260.25;;;26.25;42.62
73633;BME280;61927;50.080;14.418;2023-06-19T11:33:26;99266.22;;;26.35;41.96
73633;BME280;61927;50.080;14.418;2023-06-19T11:35:54;99258.72;;;26.44;41.08
73633;BME280;61927;50.080;14.418;2023-06-19T11:38:24;99253.09;;;26.52;40.65
73633;BME280;61927;50.080;14.418;2023-06-19T11:40:50;99253.97;;;26.59;39.84
73633;BME280;61927;50.080;14.418;2023-06-19T11:43:32;99254.78;;;26.53;39.66
73633;BME280;61927;50.080;14.418;2023-06-19T11:46:02;99256.66;;;26.52;39.78
73633;BME280;61927;50.080;14.418;2023-06-19T11:48:28;99253.09;;;26.52;39.20
73633;BME280;61927;50.080;14.418;2023-06-19T11:50:54;99248.47;;;26.46;38.08
73633;BME280;61927;50.080;14.418;2023-06-19T11:53:21;99245.28;;;26.35;38.02
73633;BME280;61927;50.080;14.418;2023-06-19T11:55:47;99247.81;;;26.37;37.92
73633;BME280;61927;50.080;14.418;2023-06-19T11:58:12;99247.19;;;26.42;38.54
73633;BME280;61927;50.080;14.418;2023-06-19T12:00:41;99240.38;;;26.59;38.53
73633;BME280;61927;50.080;14.418;2023-06-19T12:03:07;99228.28;;;26.75;39.11
73633;BME280;61927;50.080;14.418;2023-06-19T12:05:32;99227.31;;;26.95;38.65
73633;BME280;61927;50.080;14.418;2023-06-19T12:07:58;99229.06;;;27.16;38.66
73633;BME280;61927;50.080;14.418;2023-06-19T12:10:33;99228.03;;;27.30;37.53
73633;BME280;61927;50.080;14.418;2023-06-19T12:12:59;99233.50;;;27.44;37.61
73633;BME280;61927;50.080;14.418;2023-06-19T12:15:25;99230.16;;;27.48;36.39
73633;BME280;61927;50.080;14.418;2023-06-19T12:17:52;99230.34;;;27.40;37.40
73633;BME280;61927;50.080;14.418;2023-06-19T12:20:18;99224.06;;;27.33;37.17
73633;BME280;61927;50.080;14.418;2023-06-19T12:22:43;99221.94;;;27.28;37.85
73633;BME280;61927;50.080;14.418;2023-06-19T12:25:10;99229.28;;;27.28;37.80
73633;BME280;61927;50.080;14.418;2023-06-19T12:27:37;99227.41;;;27.35;38.88
73633;BME280;61927;50.080;14.418;2023-06-19T12:30:04;99233.94;;;27.60;38.88
73633;BME280;61927;50.080;14.418;2023-06-19T12:32:30;99231.44;;;27.72;37.74
73633;BME280;61927;50.080;14.418;2023-06-19T12:34:56;99228.50;;;27.80;36.85
73633;BME280;61927;50.080;14.418;2023-06-19T12:37:22;99228.69;;;27.92;39.40
73633;BME280;61927;50.080;14.418;2023-06-19T12:39:50;99228.03;;;28.03;38.69
73633;BME280;61927;50.080;14.418;2023-06-19T12:42:16;99221.34;;;27.99;35.52
73633;BME280;61927;50.080;14.418;2023-06-19T12:44:43;99219.03;;;28.03;36.56
73633;BME280;61927;50.080;14.418;2023-06-19T12:47:13;99214.56;;;28.21;36.54
73633;BME280;61927;50.080;14.418;2023-06-19T12:49:40;99208.25;;;28.41;34.87
73633;BME280;61927;50.080;14.418;2023-06-19T12:52:06;99212.84;;;28.47;35.43
73633;BME280;61927;50.080;14.418;2023-06-19T12:54:32;99218.25;;;28.60;35.13
73633;BME280;61927;50.080;14.418;2023-06-19T12:56:58;99223.06;;;28.65;35.26